sensor_id;sensor_type;location;lat;lon;timestamp;temperature;humidity
20672;DHT22;10495;50.922;4.760;2022-12-18T00:01:22;-3.60;80.50
20672;DHT22;10495;50.922;4.760;2022-12-18T00:03:48;-3.60;80.40
20672;DHT22;10495;50.922;4.760;2022-12-18T00:06:14;-3.50;80.50
20672;DHT22;10495;50.922;4.760;2022-12-18T00:08:41;-3.40;80.00
20672;DHT22;10495;50.922;4.760;2022-12-18T00:11:09;-3.60;80.40
20672;DHT22;10495;50.922;4.760;2022-12-18T00:13:36;-3.70;80.40
20672;DHT22;10495;50.922;4.760;2022-12-18T00:16:06;-3.80;80.40
20672;DHT22;10495;50.922;4.760;2022-12-18T00:18:32;-3.80;80.40
20672;DHT22;10495;50.922;4.760;2022-12-18T00:20:59;-3.80;80.40
20672;DHT22;10495;50.922;4.760;2022-12-18T00:23:26;-3.80;80.50
20672;DHT22;10495;50.922;4.760;2022-12-18T00:25:52;-3.80;80.00
20672;DHT22;10495;50.922;4.760;2022-12-18T00:28:17;-3.80;79.80
20672;DHT22;10495;50.922;4.760;2022-12-18T00:30:43;-3.90;80.50
20672;DHT22;10495;50.922;4.760;2022-12-18T00:33:08;-4.00;79.90
20672;DHT22;10495;50.922;4.760;2022-12-18T00:35:34;-4.00;80.70
20672;DHT22;10495;50.922;4.760;2022-12-18T00:38:00;-4.00;80.70
20672;DHT22;10495;50.922;4.760;2022-12-18T00:40:25;-4.00;80.80
20672;DHT22;10495;50.922;4.760;2022-12-18T00:42:51;-4.00;80.70
20672;DHT22;10495;50.922;4.760;2022-12-18T00:45:28;-4.00;80.50
20672;DHT22;10495;50.922;4.760;2022-12-18T00:47:54;-4.10;80.20
20672;DHT22;10495;50.922;4.760;2022-12-18T00:50:20;-4.10;80.10
20672;DHT22;10495;50.922;4.760;2022-12-18T00:52:46;-4.10;80.20
20672;DHT22;10495;50.922;4.760;2022-12-18T00:55:12;-4.20;80.00
20672;DHT22;10495;50.922;4.760;2022-12-18T00:57:38;-4.10;80.10
20672;DHT22;10495;50.922;4.760;2022-12-18T01:00:05;-4.20;79.80
20672;DHT22;10495;50.922;4.760;2022-12-18T01:02:31;-4.20;80.00
20672;DHT22;10495;50.922;4.760;2022-12-18T01:04:57;-4.00;79.70
20672;DHT22;10495;50.922;4.760;2022-12-18T01:07:22;-4.20;79.50
20672;DHT22;10495;50.922;4.760;2022-12-18T01:09:48;-4.30;80.30
20672;DHT22;10495;50.922;4.760;2022-12-18T01:12:13;-4.10;80.60
20672;DHT22;10495;50.922;4.760;2022-12-18T01:14:39;-4.20;79.80
20672;DHT22;10495;50.922;4.760;2022-12-18T01:17:04;-4.30;80.20
20672;DHT22;10495;50.922;4.760;2022-12-18T01:19:30;-4.20;80.10
20672;DHT22;10495;50.922;4.760;2022-12-18T01:21:56;-4.30;79.80
20672;DHT22;10495;50.922;4.760;2022-12-18T01:24:22;-4.30;79.90
20672;DHT22;10495;50.922;4.760;2022-12-18T01:26:47;-4.40;79.70
20672;DHT22;10495;50.922;4.760;2022-12-18T01:29:13;-4.40;79.60
20672;DHT22;10495;50.922;4.760;2022-12-18T01:31:39;-4.40;79.60
20672;DHT22;10495;50.922;4.760;2022-12-18T01:34:05;-4.40;79.30
20672;DHT22;10495;50.922;4.760;2022-12-18T01:36:33;-4.50;79.20
20672;DHT22;10495;50.922;4.760;2022-12-18T01:39:00;-4.50;79.40
20672;DHT22;10495;50.922;4.760;2022-12-18T01:41:28;-4.50;79.10
20672;DHT22;10495;50.922;4.760;2022-12-18T01:47:46;-4.40;79.30
20672;DHT22;10495;50.922;4.760;2022-12-18T01:50:38;-4.50;78.90
20672;DHT22;10495;50.922;4.760;2022-12-18T01:53:14;-4.60;79.10
20672;DHT22;10495;50.922;4.760;2022-12-18T01:55:49;-4.60;79.40
20672;DHT22;10495;50.922;4.760;2022-12-18T01:58:16;-4.70;79.30
20672;DHT22;10495;50.922;4.760;2022-12-18T02:00:42;-4.80;79.30
20672;DHT22;10495;50.922;4.760;2022-12-18T02:03:08;-4.80;79.10
20672;DHT22;10495;50.922;4.760;2022-12-18T02:05:49;-4.70;79.10
20672;DHT22;10495;50.922;4.760;2022-12-18T02:08:39;-4.80;78.50
20672;DHT22;10495;50.922;4.760;2022-12-18T02:14:29;-5.00;78.80
20672;DHT22;10495;50.922;4.760;2022-12-18T02:17:19;-5.00;78.90
20672;DHT22;10495;50.922;4.760;2022-12-18T02:22:29;-4.80;79.00
20672;DHT22;10495;50.922;4.760;2022-12-18T02:25:26;-4.70;78.50
20672;DHT22;10495;50.922;4.760;2022-12-18T02:27:54;-4.70;78.40
20672;DHT22;10495;50.922;4.760;2022-12-18T02:30:22;-4.80;79.50
20672;DHT22;10495;50.922;4.760;2022-12-18T02:32:52;-4.80;79.60
20672;DHT22;10495;50.922;4.760;2022-12-18T02:35:24;-4.80;79.60
20672;DHT22;10495;50.922;4.760;2022-12-18T02:37:50;-4.90;79.50
20672;DHT22;10495;50.922;4.760;2022-12-18T02:40:17;-4.90;79.60
20672;DHT22;10495;50.922;4.760;2022-12-18T02:42:43;-4.90;79.70
20672;DHT22;10495;50.922;4.760;2022-12-18T02:45:09;-4.90;79.80
20672;DHT22;10495;50.922;4.760;2022-12-18T02:47:38;-5.00;79.50
20672;DHT22;10495;50.922;4.760;2022-12-18T02:50:45;-4.90;79.60
20672;DHT22;10495;50.922;4.760;2022-12-18T02:53:36;-4.90;79.40
20672;DHT22;10495;50.922;4.760;2022-12-18T03:01:19;-5.00;78.70
20672;DHT22;10495;50.922;4.760;2022-12-18T03:03:55;-5.10;78.90
20672;DHT22;10495;50.922;4.760;2022-12-18T03:08:59;-5.10;78.70
20672;DHT22;10495;50.922;4.760;2022-12-18T03:11:30;-5.10;78.80
20672;DHT22;10495;50.922;4.760;2022-12-18T03:14:20;-5.10;78.70
20672;DHT22;10495;50.922;4.760;2022-12-18T03:16:51;-5.00;79.00
20672;DHT22;10495;50.922;4.760;2022-12-18T03:19:20;-5.10;78.50
20672;DHT22;10495;50.922;4.760;2022-12-18T03:21:53;-5.10;78.50
20672;DHT22;10495;50.922;4.760;2022-12-18T03:24:20;-5.10;78.50
20672;DHT22;10495;50.922;4.760;2022-12-18T03:26:48;-5.00;79.20
20672;DHT22;10495;50.922;4.760;2022-12-18T03:29:29;-5.00;78.40
20672;DHT22;10495;50.922;4.760;2022-12-18T03:32:02;-5.10;78.70
20672;DHT22;10495;50.922;4.760;2022-12-18T03:34:31;-5.10;78.60
20672;DHT22;10495;50.922;4.760;2022-12-18T03:36:58;-5.10;78.50
20672;DHT22;10495;50.922;4.760;2022-12-18T03:39:24;-5.00;78.60
20672;DHT22;10495;50.922;4.760;2022-12-18T03:44:45;-5.00;77.90
20672;DHT22;10495;50.922;4.760;2022-12-18T03:47:33;-5.20;78.40
20672;DHT22;10495;50.922;4.760;2022-12-18T03:52:53;-5.30;78.80
20672;DHT22;10495;50.922;4.760;2022-12-18T03:55:22;-5.30;78.70
20672;DHT22;10495;50.922;4.760;2022-12-18T03:57:49;-5.30;78.60
20672;DHT22;10495;50.922;4.760;2022-12-18T04:00:18;-5.40;78.50
20672;DHT22;10495;50.922;4.760;2022-12-18T04:02:55;-5.40;78.60
20672;DHT22;10495;50.922;4.760;2022-12-18T04:05:22;-5.40;78.50
20672;DHT22;10495;50.922;4.760;2022-12-18T04:07:50;-5.40;78.20
20672;DHT22;10495;50.922;4.760;2022-12-18T04:10:17;-5.40;78.40
20672;DHT22;10495;50.922;4.760;2022-12-18T04:12:43;-5.50;78.70
20672;DHT22;10495;50.922;4.760;2022-12-18T04:15:09;-5.40;78.80
20672;DHT22;10495;50.922;4.760;2022-12-18T04:17:35;-5.40;78.30
20672;DHT22;10495;50.922;4.760;2022-12-18T04:20:01;-5.40;78.60
20672;DHT22;10495;50.922;4.760;2022-12-18T04:22:26;-5.40;78.50
20672;DHT22;10495;50.922;4.760;2022-12-18T04:24:52;-5.50;78.20
20672;DHT22;10495;50.922;4.760;2022-12-18T04:27:18;-5.50;78.20
20672;DHT22;10495;50.922;4.760;2022-12-18T04:29:44;-5.50;78.20
20672;DHT22;10495;50.922;4.760;2022-12-18T04:32:09;-5.40;77.90
20672;DHT22;10495;50.922;4.760;2022-12-18T04:34:35;-5.40;77.90
20672;DHT22;10495;50.922;4.760;2022-12-18T04:37:01;-5.50;77.80
20672;DHT22;10495;50.922;4.760;2022-12-18T04:39:26;-5.50;78.00
20672;DHT22;10495;50.922;4.760;2022-12-18T04:41:52;-5.50;78.20
20672;DHT22;10495;50.922;4.760;2022-12-18T04:44:18;-5.50;78.30
20672;DHT22;10495;50.922;4.760;2022-12-18T04:46:43;-5.50;78.70
20672;DHT22;10495;50.922;4.760;2022-12-18T04:49:09;-5.50;78.60
20672;DHT22;10495;50.922;4.760;2022-12-18T04:51:36;-5.50;78.50
20672;DHT22;10495;50.922;4.760;2022-12-18T04:54:02;-5.50;78.50
20672;DHT22;10495;50.922;4.760;2022-12-18T04:56:30;-5.50;78.40
20672;DHT22;10495;50.922;4.760;2022-12-18T04:58:55;-5.50;78.40
20672;DHT22;10495;50.922;4.760;2022-12-18T05:01:21;-5.50;78.60
20672;DHT22;10495;50.922;4.760;2022-12-18T05:03:46;-5.50;78.60
20672;DHT22;10495;50.922;4.760;2022-12-18T05:06:12;-5.50;78.40
20672;DHT22;10495;50.922;4.760;2022-12-18T05:08:38;-5.50;78.10
20672;DHT22;10495;50.922;4.760;2022-12-18T05:11:06;-5.50;78.20
20672;DHT22;10495;50.922;4.760;2022-12-18T05:13:32;-5.50;78.10
20672;DHT22;10495;50.922;4.760;2022-12-18T05:15:58;-5.50;77.90
20672;DHT22;10495;50.922;4.760;2022-12-18T05:18:24;-5.50;78.10
20672;DHT22;10495;50.922;4.760;2022-12-18T05:20:51;-5.50;78.10
20672;DHT22;10495;50.922;4.760;2022-12-18T05:23:18;-5.60;78.70
20672;DHT22;10495;50.922;4.760;2022-12-18T05:28:18;-5.50;78.70
20672;DHT22;10495;50.922;4.760;2022-12-18T05:30:51;-5.50;79.10
20672;DHT22;10495;50.922;4.760;2022-12-18T05:33:22;-5.40;79.30
20672;DHT22;10495;50.922;4.760;2022-12-18T05:35:52;-5.40;79.20
20672;DHT22;10495;50.922;4.760;2022-12-18T05:38:19;-5.40;79.80
20672;DHT22;10495;50.922;4.760;2022-12-18T05:40:45;-5.50;79.60
20672;DHT22;10495;50.922;4.760;2022-12-18T05:43:10;-5.40;79.80
20672;DHT22;10495;50.922;4.760;2022-12-18T05:45:39;-5.30;79.40
20672;DHT22;10495;50.922;4.760;2022-12-18T05:48:05;-5.30;79.40
20672;DHT22;10495;50.922;4.760;2022-12-18T05:50:34;-5.40;79.20
20672;DHT22;10495;50.922;4.760;2022-12-18T05:53:00;-5.40;79.60
20672;DHT22;10495;50.922;4.760;2022-12-18T05:55:26;-5.30;79.70
20672;DHT22;10495;50.922;4.760;2022-12-18T05:57:51;-5.20;79.00
20672;DHT22;10495;50.922;4.760;2022-12-18T06:00:17;-5.10;78.30
20672;DHT22;10495;50.922;4.760;2022-12-18T06:02:46;-5.10;78.20
20672;DHT22;10495;50.922;4.760;2022-12-18T06:05:12;-5.10;77.80
20672;DHT22;10495;50.922;4.760;2022-12-18T06:07:38;-4.90;77.70
20672;DHT22;10495;50.922;4.760;2022-12-18T06:10:03;-5.00;76.40
20672;DHT22;10495;50.922;4.760;2022-12-18T06:12:29;-5.30;77.80
20672;DHT22;10495;50.922;4.760;2022-12-18T06:14:55;-5.50;79.00
20672;DHT22;10495;50.922;4.760;2022-12-18T06:17:20;-5.60;79.30
20672;DHT22;10495;50.922;4.760;2022-12-18T06:19:46;-5.40;79.50
20672;DHT22;10495;50.922;4.760;2022-12-18T06:22:11;-5.40;79.30
20672;DHT22;10495;50.922;4.760;2022-12-18T06:24:37;-5.20;78.90
20672;DHT22;10495;50.922;4.760;2022-12-18T06:27:02;-5.10;78.50
20672;DHT22;10495;50.922;4.760;2022-12-18T06:29:28;-5.10;78.10
20672;DHT22;10495;50.922;4.760;2022-12-18T06:31:54;-5.00;77.80
20672;DHT22;10495;50.922;4.760;2022-12-18T06:34:19;-4.90;77.10
20672;DHT22;10495;50.922;4.760;2022-12-18T06:36:45;-5.00;77.40
20672;DHT22;10495;50.922;4.760;2022-12-18T06:39:10;-5.10;77.60
20672;DHT22;10495;50.922;4.760;2022-12-18T06:41:36;-5.10;77.90
20672;DHT22;10495;50.922;4.760;2022-12-18T06:44:02;-5.00;77.50
20672;DHT22;10495;50.922;4.760;2022-12-18T06:46:27;-5.20;78.10
20672;DHT22;10495;50.922;4.760;2022-12-18T06:48:53;-5.30;78.70
20672;DHT22;10495;50.922;4.760;2022-12-18T06:51:20;-5.30;79.10
20672;DHT22;10495;50.922;4.760;2022-12-18T06:53:46;-5.40;79.20
20672;DHT22;10495;50.922;4.760;2022-12-18T06:56:12;-5.30;79.00
20672;DHT22;10495;50.922;4.760;2022-12-18T06:58:38;-5.20;78.30
20672;DHT22;10495;50.922;4.760;2022-12-18T07:01:06;-5.20;78.10
20672;DHT22;10495;50.922;4.760;2022-12-18T07:03:32;-5.40;78.30
20672;DHT22;10495;50.922;4.760;2022-12-18T07:05:57;-5.50;79.10
20672;DHT22;10495;50.922;4.760;2022-12-18T07:08:24;-5.60;79.60
20672;DHT22;10495;50.922;4.760;2022-12-18T07:10:50;-5.50;79.70
20672;DHT22;10495;50.922;4.760;2022-12-18T07:13:16;-5.40;79.20
20672;DHT22;10495;50.922;4.760;2022-12-18T07:15:42;-5.30;78.30
20672;DHT22;10495;50.922;4.760;2022-12-18T07:18:08;-5.20;77.90
20672;DHT22;10495;50.922;4.760;2022-12-18T07:20:33;-5.20;78.00
20672;DHT22;10495;50.922;4.760;2022-12-18T07:23:01;-5.40;78.40
20672;DHT22;10495;50.922;4.760;2022-12-18T07:25:26;-5.50;79.20
20672;DHT22;10495;50.922;4.760;2022-12-18T07:27:52;-5.50;79.50
20672;DHT22;10495;50.922;4.760;2022-12-18T07:30:18;-5.50;79.50
20672;DHT22;10495;50.922;4.760;2022-12-18T07:32:43;-5.60;79.70
20672;DHT22;10495;50.922;4.760;2022-12-18T07:35:09;-5.50;79.60
20672;DHT22;10495;50.922;4.760;2022-12-18T07:37:34;-5.40;79.40
20672;DHT22;10495;50.922;4.760;2022-12-18T07:40:00;-5.40;79.30
20672;DHT22;10495;50.922;4.760;2022-12-18T07:42:26;-5.50;79.80
20672;DHT22;10495;50.922;4.760;2022-12-18T07:44:59;-5.40;79.70
20672;DHT22;10495;50.922;4.760;2022-12-18T07:47:25;-5.50;80.00
20672;DHT22;10495;50.922;4.760;2022-12-18T07:49:51;-5.50;79.70
20672;DHT22;10495;50.922;4.760;2022-12-18T07:52:16;-5.40;79.50
20672;DHT22;10495;50.922;4.760;2022-12-18T07:54:42;-5.30;79.60
20672;DHT22;10495;50.922;4.760;2022-12-18T07:57:08;-5.30;79.30
20672;DHT22;10495;50.922;4.760;2022-12-18T07:59:34;-5.40;79.40
20672;DHT22;10495;50.922;4.760;2022-12-18T08:02:00;-5.20;79.60
20672;DHT22;10495;50.922;4.760;2022-12-18T08:04:25;-5.20;78.90
20672;DHT22;10495;50.922;4.760;2022-12-18T08:06:51;-5.20;79.10
20672;DHT22;10495;50.922;4.760;2022-12-18T08:09:17;-5.20;79.70
20672;DHT22;10495;50.922;4.760;2022-12-18T08:11:43;-5.30;80.20
20672;DHT22;10495;50.922;4.760;2022-12-18T08:14:09;-5.20;80.70
20672;DHT22;10495;50.922;4.760;2022-12-18T08:16:35;-5.20;81.00
20672;DHT22;10495;50.922;4.760;2022-12-18T08:19:00;-5.10;81.20
20672;DHT22;10495;50.922;4.760;2022-12-18T08:21:29;-5.00;81.10
20672;DHT22;10495;50.922;4.760;2022-12-18T08:23:57;-4.70;80.90
20672;DHT22;10495;50.922;4.760;2022-12-18T08:26:25;-4.60;80.50
20672;DHT22;10495;50.922;4.760;2022-12-18T08:28:51;-4.40;80.70
20672;DHT22;10495;50.922;4.760;2022-12-18T08:31:18;-4.10;80.30
20672;DHT22;10495;50.922;4.760;2022-12-18T08:33:45;-3.90;80.00
20672;DHT22;10495;50.922;4.760;2022-12-18T08:36:11;-3.50;79.00
20672;DHT22;10495;50.922;4.760;2022-12-18T08:38:36;-3.30;79.10
20672;DHT22;10495;50.922;4.760;2022-12-18T08:41:07;-3.00;78.20
20672;DHT22;10495;50.922;4.760;2022-12-18T08:43:33;-2.90;77.90
20672;DHT22;10495;50.922;4.760;2022-12-18T08:46:18;-2.80;77.60
20672;DHT22;10495;50.922;4.760;2022-12-18T08:48:44;-2.50;77.70
20672;DHT22;10495;50.922;4.760;2022-12-18T08:51:10;-2.60;78.10
20672;DHT22;10495;50.922;4.760;2022-12-18T08:53:36;-2.60;78.30
20672;DHT22;10495;50.922;4.760;2022-12-18T08:56:03;-2.50;78.90
20672;DHT22;10495;50.922;4.760;2022-12-18T08:58:29;-2.50;78.80
20672;DHT22;10495;50.922;4.760;2022-12-18T09:01:02;-2.50;79.30
20672;DHT22;10495;50.922;4.760;2022-12-18T09:03:28;-2.50;79.70
20672;DHT22;10495;50.922;4.760;2022-12-18T09:05:54;-2.50;80.20
20672;DHT22;10495;50.922;4.760;2022-12-18T09:08:19;-2.40;80.70
20672;DHT22;10495;50.922;4.760;2022-12-18T09:10:46;-2.20;80.60
20672;DHT22;10495;50.922;4.760;2022-12-18T09:13:12;-2.20;80.60
20672;DHT22;10495;50.922;4.760;2022-12-18T09:15:45;-2.00;80.70
20672;DHT22;10495;50.922;4.760;2022-12-18T09:18:12;-1.90;79.70
20672;DHT22;10495;50.922;4.760;2022-12-18T09:20:38;-1.90;80.30
20672;DHT22;10495;50.922;4.760;2022-12-18T09:23:04;-1.80;81.00
20672;DHT22;10495;50.922;4.760;2022-12-18T09:25:31;-1.60;80.10
20672;DHT22;10495;50.922;4.760;2022-12-18T09:28:11;-1.40;80.00
20672;DHT22;10495;50.922;4.760;2022-12-18T09:30:39;-1.20;79.00
20672;DHT22;10495;50.922;4.760;2022-12-18T09:33:05;-1.20;78.80
20672;DHT22;10495;50.922;4.760;2022-12-18T09:35:30;-1.10;78.50
20672;DHT22;10495;50.922;4.760;2022-12-18T09:37:56;-0.90;77.80
20672;DHT22;10495;50.922;4.760;2022-12-18T09:40:25;-1.00;78.50
20672;DHT22;10495;50.922;4.760;2022-12-18T09:42:57;-1.10;79.20
20672;DHT22;10495;50.922;4.760;2022-12-18T09:45:24;-0.90;79.40
20672;DHT22;10495;50.922;4.760;2022-12-18T09:47:52;-0.70;78.30
20672;DHT22;10495;50.922;4.760;2022-12-18T09:50:32;-0.70;78.80
20672;DHT22;10495;50.922;4.760;2022-12-18T09:53:06;-0.70;78.00
20672;DHT22;10495;50.922;4.760;2022-12-18T09:55:38;-0.60;77.80
20672;DHT22;10495;50.922;4.760;2022-12-18T09:58:12;-0.50;77.50
20672;DHT22;10495;50.922;4.760;2022-12-18T10:00:39;-0.20;76.00
20672;DHT22;10495;50.922;4.760;2022-12-18T10:03:13;-0.30;76.80
20672;DHT22;10495;50.922;4.760;2022-12-18T10:10:59;-0.20;76.50
20672;DHT22;10495;50.922;4.760;2022-12-18T10:16:19;0.00;75.80
20672;DHT22;10495;50.922;4.760;2022-12-18T10:24:22;0.40;73.30
20672;DHT22;10495;50.922;4.760;2022-12-18T10:26:49;0.50;72.90
20672;DHT22;10495;50.922;4.760;2022-12-18T10:29:16;0.60;73.20
20672;DHT22;10495;50.922;4.760;2022-12-18T10:31:42;0.50;73.20
20672;DHT22;10495;50.922;4.760;2022-12-18T10:34:12;0.60;73.00
20672;DHT22;10495;50.922;4.760;2022-12-18T10:36:38;0.70;71.80
20672;DHT22;10495;50.922;4.760;2022-12-18T10:39:22;0.80;71.20
20672;DHT22;10495;50.922;4.760;2022-12-18T10:41:48;0.90;70.30
20672;DHT22;10495;50.922;4.760;2022-12-18T10:44:22;0.80;71.00
20672;DHT22;10495;50.922;4.760;2022-12-18T10:46:50;0.80;71.40
20672;DHT22;10495;50.922;4.760;2022-12-18T10:49:35;0.80;71.20
20672;DHT22;10495;50.922;4.760;2022-12-18T10:52:21;0.60;72.60
20672;DHT22;10495;50.922;4.760;2022-12-18T10:54:55;0.50;73.50
20672;DHT22;10495;50.922;4.760;2022-12-18T10:59:57;0.60;74.00
20672;DHT22;10495;50.922;4.760;2022-12-18T11:02:37;0.70;73.80
20672;DHT22;10495;50.922;4.760;2022-12-18T11:05:29;0.60;74.50
20672;DHT22;10495;50.922;4.760;2022-12-18T11:07:56;0.80;74.10
20672;DHT22;10495;50.922;4.760;2022-12-18T11:10:33;0.60;74.50
20672;DHT22;10495;50.922;4.760;2022-12-18T11:13:20;0.70;75.10
20672;DHT22;10495;50.922;4.760;2022-12-18T11:15:47;0.60;76.00
20672;DHT22;10495;50.922;4.760;2022-12-18T11:18:34;0.50;77.40
20672;DHT22;10495;50.922;4.760;2022-12-18T11:21:11;0.60;76.90
20672;DHT22;10495;50.922;4.760;2022-12-18T11:23:47;0.60;77.10
20672;DHT22;10495;50.922;4.760;2022-12-18T11:26:14;0.60;77.40
20672;DHT22;10495;50.922;4.760;2022-12-18T11:28:47;0.50;78.20
20672;DHT22;10495;50.922;4.760;2022-12-18T11:36:46;0.80;78.50
20672;DHT22;10495;50.922;4.760;2022-12-18T11:39:30;0.80;78.40
20672;DHT22;10495;50.922;4.760;2022-12-18T11:42:50;0.90;78.70
20672;DHT22;10495;50.922;4.760;2022-12-18T11:44:55;0.90;78.90
20672;DHT22;10495;50.922;4.760;2022-12-18T11:50:18;1.00;79.10
20672;DHT22;10495;50.922;4.760;2022-12-18T11:52:44;1.00;79.20
20672;DHT22;10495;50.922;4.760;2022-12-18T11:55:16;1.00;79.30
20672;DHT22;10495;50.922;4.760;2022-12-18T12:06:24;1.20;78.60
20672;DHT22;10495;50.922;4.760;2022-12-18T12:16:54;1.20;79.90
20672;DHT22;10495;50.922;4.760;2022-12-18T12:19:48;1.30;79.50
20672;DHT22;10495;50.922;4.760;2022-12-18T12:25:17;1.20;80.00
20672;DHT22;10495;50.922;4.760;2022-12-18T12:30:42;1.50;79.80
20672;DHT22;10495;50.922;4.760;2022-12-18T12:33:15;1.40;80.00
20672;DHT22;10495;50.922;4.760;2022-12-18T12:38:30;1.70;79.70
20672;DHT22;10495;50.922;4.760;2022-12-18T12:41:02;1.80;78.80
20672;DHT22;10495;50.922;4.760;2022-12-18T12:43:45;1.70;79.10
20672;DHT22;10495;50.922;4.760;2022-12-18T12:46:14;1.70;79.30
20672;DHT22;10495;50.922;4.760;2022-12-18T12:48:47;1.80;79.50
20672;DHT22;10495;50.922;4.760;2022-12-18T12:53:57;1.90;79.30
20672;DHT22;10495;50.922;4.760;2022-12-18T12:56:29;1.80;79.30
20672;DHT22;10495;50.922;4.760;2022-12-18T12:59:08;1.90;79.40
20672;DHT22;10495;50.922;4.760;2022-12-18T13:02:05;2.20;78.70
20672;DHT22;10495;50.922;4.760;2022-12-18T13:04:35;2.30;78.00
20672;DHT22;10495;50.922;4.760;2022-12-18T13:07:10;2.10;78.30
20672;DHT22;10495;50.922;4.760;2022-12-18T13:13:04;1.90;79.40
20672;DHT22;10495;50.922;4.760;2022-12-18T13:25:49;2.10;79.00
20672;DHT22;10495;50.922;4.760;2022-12-18T13:28:16;2.30;78.30
20672;DHT22;10495;50.922;4.760;2022-12-18T13:30:56;2.30;78.50
20672;DHT22;10495;50.922;4.760;2022-12-18T13:38:21;2.20;78.70
20672;DHT22;10495;50.922;4.760;2022-12-18T13:43:27;2.20;78.20
20672;DHT22;10495;50.922;4.760;2022-12-18T13:48:34;2.30;75.70
20672;DHT22;10495;50.922;4.760;2022-12-18T13:51:05;2.20;74.60
20672;DHT22;10495;50.922;4.760;2022-12-18T13:53:48;2.30;75.50
20672;DHT22;10495;50.922;4.760;2022-12-18T13:56:16;2.20;74.10
20672;DHT22;10495;50.922;4.760;2022-12-18T13:58:43;2.30;75.20
20672;DHT22;10495;50.922;4.760;2022-12-18T14:01:22;2.40;74.30
20672;DHT22;10495;50.922;4.760;2022-12-18T14:03:55;2.50;73.40
20672;DHT22;10495;50.922;4.760;2022-12-18T14:06:34;2.70;72.90
20672;DHT22;10495;50.922;4.760;2022-12-18T14:09:00;2.70;71.80
20672;DHT22;10495;50.922;4.760;2022-12-18T14:11:26;2.60;72.90
20672;DHT22;10495;50.922;4.760;2022-12-18T14:13:52;2.50;72.40
20672;DHT22;10495;50.922;4.760;2022-12-18T14:16:18;2.50;72.60
20672;DHT22;10495;50.922;4.760;2022-12-18T14:18:52;2.70;71.30
20672;DHT22;10495;50.922;4.760;2022-12-18T14:21:25;2.80;70.70
20672;DHT22;10495;50.922;4.760;2022-12-18T14:24:05;2.90;69.80
20672;DHT22;10495;50.922;4.760;2022-12-18T14:26:32;2.60;70.90
20672;DHT22;10495;50.922;4.760;2022-12-18T14:29:00;2.60;71.40
20672;DHT22;10495;50.922;4.760;2022-12-18T14:31:28;2.60;71.90
20672;DHT22;10495;50.922;4.760;2022-12-18T14:33:55;2.60;71.40
20672;DHT22;10495;50.922;4.760;2022-12-18T14:36:26;2.60;71.90
20672;DHT22;10495;50.922;4.760;2022-12-18T14:38:54;2.80;70.70
20672;DHT22;10495;50.922;4.760;2022-12-18T14:41:21;2.80;70.00
20672;DHT22;10495;50.922;4.760;2022-12-18T14:43:49;3.10;69.40
20672;DHT22;10495;50.922;4.760;2022-12-18T14:46:28;3.00;69.10
20672;DHT22;10495;50.922;4.760;2022-12-18T14:48:54;3.00;69.20
20672;DHT22;10495;50.922;4.760;2022-12-18T14:51:21;3.10;68.80
20672;DHT22;10495;50.922;4.760;2022-12-18T14:54:14;3.00;69.00
20672;DHT22;10495;50.922;4.760;2022-12-18T14:57:05;3.10;68.70
20672;DHT22;10495;50.922;4.760;2022-12-18T14:59:31;3.10;68.50
20672;DHT22;10495;50.922;4.760;2022-12-18T15:02:01;3.10;68.00
20672;DHT22;10495;50.922;4.760;2022-12-18T15:04:37;3.00;68.60
20672;DHT22;10495;50.922;4.760;2022-12-18T15:09:30;2.70;69.70
20672;DHT22;10495;50.922;4.760;2022-12-18T15:12:00;2.80;69.90
20672;DHT22;10495;50.922;4.760;2022-12-18T15:17:05;2.90;69.40
20672;DHT22;10495;50.922;4.760;2022-12-18T15:19:38;3.20;67.70
20672;DHT22;10495;50.922;4.760;2022-12-18T15:22:11;3.10;68.00
20672;DHT22;10495;50.922;4.760;2022-12-18T15:24:39;3.00;68.00
20672;DHT22;10495;50.922;4.760;2022-12-18T15:27:04;2.80;68.80
20672;DHT22;10495;50.922;4.760;2022-12-18T15:29:59;2.80;69.20
20672;DHT22;10495;50.922;4.760;2022-12-18T15:32:25;2.80;69.50
20672;DHT22;10495;50.922;4.760;2022-12-18T15:34:51;2.90;68.60
20672;DHT22;10495;50.922;4.760;2022-12-18T15:37:26;2.80;68.60
20672;DHT22;10495;50.922;4.760;2022-12-18T15:39:52;2.80;68.40
20672;DHT22;10495;50.922;4.760;2022-12-18T15:42:17;2.80;68.00
20672;DHT22;10495;50.922;4.760;2022-12-18T15:45:02;2.90;67.20
20672;DHT22;10495;50.922;4.760;2022-12-18T15:47:27;2.70;68.00
20672;DHT22;10495;50.922;4.760;2022-12-18T15:49:53;2.80;68.10
20672;DHT22;10495;50.922;4.760;2022-12-18T15:52:19;2.80;67.90
20672;DHT22;10495;50.922;4.760;2022-12-18T15:54:51;2.70;68.50
20672;DHT22;10495;50.922;4.760;2022-12-18T15:57:35;2.80;68.30
20672;DHT22;10495;50.922;4.760;2022-12-18T16:00:00;2.80;68.30
20672;DHT22;10495;50.922;4.760;2022-12-18T16:02:26;2.80;68.30
20672;DHT22;10495;50.922;4.760;2022-12-18T16:04:53;3.00;67.40
20672;DHT22;10495;50.922;4.760;2022-12-18T16:07:19;3.10;66.90
20672;DHT22;10495;50.922;4.760;2022-12-18T16:09:47;3.10;67.20
20672;DHT22;10495;50.922;4.760;2022-12-18T16:12:17;3.00;67.10
20672;DHT22;10495;50.922;4.760;2022-12-18T16:14:44;3.00;67.20
20672;DHT22;10495;50.922;4.760;2022-12-18T16:17:11;2.90;67.80
20672;DHT22;10495;50.922;4.760;2022-12-18T16:19:36;2.80;67.90
20672;DHT22;10495;50.922;4.760;2022-12-18T16:22:02;2.90;67.10
20672;DHT22;10495;50.922;4.760;2022-12-18T16:24:30;3.10;66.20
20672;DHT22;10495;50.922;4.760;2022-12-18T16:26:58;3.10;65.90
20672;DHT22;10495;50.922;4.760;2022-12-18T16:29:25;3.10;66.20
20672;DHT22;10495;50.922;4.760;2022-12-18T16:32:00;3.00;66.00
20672;DHT22;10495;50.922;4.760;2022-12-18T16:34:31;3.00;66.40
20672;DHT22;10495;50.922;4.760;2022-12-18T16:37:01;3.10;65.80
20672;DHT22;10495;50.922;4.760;2022-12-18T16:39:28;2.80;66.30
20672;DHT22;10495;50.922;4.760;2022-12-18T16:41:55;2.90;66.00
20672;DHT22;10495;50.922;4.760;2022-12-18T16:44:21;3.00;65.90
20672;DHT22;10495;50.922;4.760;2022-12-18T16:46:46;3.10;65.40
20672;DHT22;10495;50.922;4.760;2022-12-18T16:49:13;3.10;65.40
20672;DHT22;10495;50.922;4.760;2022-12-18T16:51:39;2.90;66.20
20672;DHT22;10495;50.922;4.760;2022-12-18T16:54:05;2.60;67.00
20672;DHT22;10495;50.922;4.760;2022-12-18T16:56:31;2.60;67.60
20672;DHT22;10495;50.922;4.760;2022-12-18T16:58:58;2.80;65.90
20672;DHT22;10495;50.922;4.760;2022-12-18T17:01:26;2.80;66.10
20672;DHT22;10495;50.922;4.760;2022-12-18T17:03:59;2.80;66.00
20672;DHT22;10495;50.922;4.760;2022-12-18T17:06:27;2.90;65.80
20672;DHT22;10495;50.922;4.760;2022-12-18T17:08:57;3.10;64.60
20672;DHT22;10495;50.922;4.760;2022-12-18T17:11:25;3.20;63.50
20672;DHT22;10495;50.922;4.760;2022-12-18T17:13:51;3.20;63.60
20672;DHT22;10495;50.922;4.760;2022-12-18T17:16:16;3.00;64.60
20672;DHT22;10495;50.922;4.760;2022-12-18T17:18:42;2.80;65.50
20672;DHT22;10495;50.922;4.760;2022-12-18T17:21:09;2.80;65.70
20672;DHT22;10495;50.922;4.760;2022-12-18T17:23:35;3.00;64.90
20672;DHT22;10495;50.922;4.760;2022-12-18T17:26:02;3.00;65.10
20672;DHT22;10495;50.922;4.760;2022-12-18T17:28:29;3.30;63.50
20672;DHT22;10495;50.922;4.760;2022-12-18T17:30:55;3.40;62.90
20672;DHT22;10495;50.922;4.760;2022-12-18T17:33:22;3.20;63.60
20672;DHT22;10495;50.922;4.760;2022-12-18T17:35:48;3.40;62.90
20672;DHT22;10495;50.922;4.760;2022-12-18T17:38:14;3.30;63.10